Aikoumaru No.8 — JD3288 — position and weather

sailwx.info

Track history (hours):
 
Tides and Currents Weather Stations Pressure Air Temp Water Temp Dewpoint Dewpoint Depression Visibility Wind Speed Wind Dir Waves Ship Positions

Aikoumaru No.8

Last reported at 2014-Nov-22 06:06 UTC. Time now 2014-Nov-23 11:04 UTC.
Position N 35°12' E 139°46'.

Length 74 m; draft 4.5 m.

Type: Cargo ship. MMSI: 431003153.

Date/timePositionNaut miles runAvg speedWind from/ knotsBaromVisibWave heightAir tempDewpointWater temp
2014-Nov-22 06:06N 35°12' E 139°46'712.1
2014-Nov-22 05:33N 35°18' E 139°44'10 9.9
2014-Nov-22 04:33N 35°27' E 139°41'0 0.0
2014-Nov-22 03:33N 35°27' E 139°41'0 0.0
2014-Nov-22 02:33N 35°27' E 139°41'0 0.0
2014-Nov-22 01:33N 35°27' E 139°41'0 0.0
2014-Nov-22 00:33N 35°27' E 139°41'0 0.0
2014-Nov-21 23:34N 35°27' E 139°41'8 8.2
2014-Nov-21 22:33N 35°29' E 139°51'1210.5
2014-Nov-21 21:23N 35°40' E 139°57'13 2.7
2014-Nov-21 16:31N 35°28' E 139°51'1111.6
2014-Nov-21 15:33N 35°19' E 139°44'1410.0
2014-Nov-21 14:07N 35°04' E 139°42'237 9.3
2014-Nov-20 12:33N 34°05' E 135°03'1212.0
2014-Nov-20 11:33N 34°17' E 135°03'1211.5
2014-Nov-20 10:33N 34°27' E 135°11'1311.7
2014-Nov-20 09:28N 34°36' E 135°22'5 5.0
2014-Nov-20 08:33N 34°34' E 135°27'0 0.1
2014-Nov-20 07:15N 34°34' E 135°27'0 0.1
2014-Nov-20 06:33N 34°34' E 135°27'0 0.0
2014-Nov-20 04:07N 34°34' E 135°27'0 0.1
2014-Nov-20 03:07N 34°34' E 135°27'0 0.0
2014-Nov-20 01:31N 34°34' E 135°27'0 0.1
2014-Nov-20 00:25N 34°34' E 135°27'0 0.1
2014-Nov-19 23:26N 34°34' E 135°27'0 0.0
2014-Nov-19 22:05N 34°34' E 135°27'0 0.1
2014-Nov-19 21:29N 34°34' E 135°27'0 0.0
2014-Nov-19 20:23N 34°34' E 135°27'0 0.0
2014-Nov-19 19:23N 34°34' E 135°27'0 0.0
2014-Nov-19 17:29N 34°34' E 135°27'0 0.1
2014-Nov-19 16:29N 34°34' E 135°27'0 0.1
2014-Nov-19 15:29N 34°34' E 135°27'0 0.0
2014-Nov-19 14:05N 34°34' E 135°27'0 0.0
2014-Nov-19 13:29N 34°34' E 135°27'0 0.0
2014-Nov-19 12:24N 34°34' E 135°27'1 0.6
2014-Nov-19 11:33N 34°35' E 135°27'0 0.0
2014-Nov-19 10:21N 34°34' E 135°27'0 0.0
2014-Nov-19 08:27N 34°34' E 135°27'0 0.0
2014-Nov-19 07:27N 34°34' E 135°27'0 0.0
2014-Nov-19 06:33N 34°34' E 135°27'0 0.0
2014-Nov-19 05:27N 34°34' E 135°27'0 0.0
2014-Nov-19 04:21N 34°34' E 135°27'0 0.1
2014-Nov-19 03:27N 34°34' E 135°27'0 0.0
2014-Nov-19 02:27N 34°35' E 135°27'0 0.1
2014-Nov-19 01:33N 34°35' E 135°27'9 8.8
2014-Nov-19 00:33N 34°32' E 135°17'1312.8
2014-Nov-18 23:32N 34°22' E 135°07'1212.5
2014-Nov-18 22:33N 34°10' E 135°02'  
2014-Nov-15 09:31N 35°11' E 139°46'1212.3
2014-Nov-15 08:33N 35°22' E 139°42'22 2.1
2014-Nov-14 22:24N 35°40' E 139°57'11 1.3
2014-Nov-14 14:17N 35°30' E 139°53'1810.3
2014-Nov-14 12:30N 35°12' E 139°47'25710.2
2014-Nov-13 11:25N 34°09' E 134°45'  
Track history (hours):
 
Tides and Currents Weather Stations Pressure Air Temp Water Temp Dewpoint Dewpoint Depression Visibility Wind Speed Wind Dir Waves Ship Positions

Aikoumaru No.8

Last reported at 2014-Nov-22 06:06 UTC. Time now 2014-Nov-23 11:04 UTC.
Position N 35°12' E 139°46'.

Length 74 m; draft 4.5 m.

Type: Cargo ship. MMSI: 431003153.

Date/timePositionNaut miles runAvg speedWind from/ knotsBaromVisibWave heightAir tempDewpointWater temp
2014-Nov-22 06:06N 35°12' E 139°46'712.1
2014-Nov-22 05:33N 35°18' E 139°44'10 9.9
2014-Nov-22 04:33N 35°27' E 139°41'0 0.0
2014-Nov-22 03:33N 35°27' E 139°41'0 0.0
2014-Nov-22 02:33N 35°27' E 139°41'0 0.0
2014-Nov-22 01:33N 35°27' E 139°41'0 0.0
2014-Nov-22 00:33N 35°27' E 139°41'0 0.0
2014-Nov-21 23:34N 35°27' E 139°41'8 8.2
2014-Nov-21 22:33N 35°29' E 139°51'1210.5
2014-Nov-21 21:23N 35°40' E 139°57'13 2.7
2014-Nov-21 16:31N 35°28' E 139°51'1111.6
2014-Nov-21 15:33N 35°19' E 139°44'1410.0
2014-Nov-21 14:07N 35°04' E 139°42'237 9.3
2014-Nov-20 12:33N 34°05' E 135°03'1212.0
2014-Nov-20 11:33N 34°17' E 135°03'1211.5
2014-Nov-20 10:33N 34°27' E 135°11'1311.7
2014-Nov-20 09:28N 34°36' E 135°22'5 5.0
2014-Nov-20 08:33N 34°34' E 135°27'0 0.1
2014-Nov-20 07:15N 34°34' E 135°27'0 0.1
2014-Nov-20 06:33N 34°34' E 135°27'0 0.0
2014-Nov-20 04:07N 34°34' E 135°27'0 0.1
2014-Nov-20 03:07N 34°34' E 135°27'0 0.0
2014-Nov-20 01:31N 34°34' E 135°27'0 0.1
2014-Nov-20 00:25N 34°34' E 135°27'0 0.1
2014-Nov-19 23:26N 34°34' E 135°27'0 0.0
2014-Nov-19 22:05N 34°34' E 135°27'0 0.1
2014-Nov-19 21:29N 34°34' E 135°27'0 0.0
2014-Nov-19 20:23N 34°34' E 135°27'0 0.0
2014-Nov-19 19:23N 34°34' E 135°27'0 0.0
2014-Nov-19 17:29N 34°34' E 135°27'0 0.1
2014-Nov-19 16:29N 34°34' E 135°27'0 0.1
2014-Nov-19 15:29N 34°34' E 135°27'0 0.0
2014-Nov-19 14:05N 34°34' E 135°27'0 0.0
2014-Nov-19 13:29N 34°34' E 135°27'0 0.0
2014-Nov-19 12:24N 34°34' E 135°27'1 0.6
2014-Nov-19 11:33N 34°35' E 135°27'0 0.0
2014-Nov-19 10:21N 34°34' E 135°27'0 0.0
2014-Nov-19 08:27N 34°34' E 135°27'0 0.0
2014-Nov-19 07:27N 34°34' E 135°27'0 0.0
2014-Nov-19 06:33N 34°34' E 135°27'0 0.0
2014-Nov-19 05:27N 34°34' E 135°27'0 0.0
2014-Nov-19 04:21N 34°34' E 135°27'0 0.1
2014-Nov-19 03:27N 34°34' E 135°27'0 0.0
2014-Nov-19 02:27N 34°35' E 135°27'0 0.1
2014-Nov-19 01:33N 34°35' E 135°27'9 8.8
2014-Nov-19 00:33N 34°32' E 135°17'1312.8
2014-Nov-18 23:32N 34°22' E 135°07'1212.5
2014-Nov-18 22:33N 34°10' E 135°02'  
2014-Nov-15 09:31N 35°11' E 139°46'1212.3
2014-Nov-15 08:33N 35°22' E 139°42'22 2.1
2014-Nov-14 22:24N 35°40' E 139°57'11 1.3
2014-Nov-14 14:17N 35°30' E 139°53'1810.3
2014-Nov-14 12:30N 35°12' E 139°47'25710.2
2014-Nov-13 11:25N 34°09' E 134°45'  

Dump ship's entire track history